»·PEaware :: N733WT KSBA-KBUR

N733WT :: KSBA-KBUR

FLIGHT INFORMATION

Flight Status: Arrived
Operator: Privately registered:
United States
More flights under this callsign
Pilot: Jeremy K. (15416)
Aircraft: CESSNA 172 SKYHAWK
(C172)
More flights by this aircraft type
Origin: KSBA Santa Barbara Mun
United States
Destination: KBUR Bob Hope-Burbank
United States
More flights between these airports :: More routes between these airports
Route:
File this flight plan on PilotEdge
Remarks: CAT-08
Altitude:
(Current/Filed)
7,500ft
Speed:
(Current/Filed)
100kts
Departed: 25-Feb-18 05:59 PM
Arrived: 25-Feb-18 06:59 PM
Distance/Time
Traveled:
75nm/1:00
Distance/Time
To Go:
Arrived

Flight Plot

Page will automatically refresh every two minutes.


Map Options




Map Legend


Flown Route
Filed Route
Departure Airport
Arrival Airport
Navaid (VOR, NDB)
Fix

Horizontal Profiles

Position Reports

Time Latitude Longitude Heading Altitude Ground
Speed
25-Feb-18 17:47 34.422664 -119.835593 340 17ft 0kts
25-Feb-18 17:48 34.422664 -119.835593 340 17ft 0kts
25-Feb-18 17:49 34.422678 -119.835806 269 17ft 6kts
25-Feb-18 17:50 34.422675 -119.835908 265 17ft 0kts
25-Feb-18 17:51 34.422675 -119.835908 265 17ft 0kts
25-Feb-18 17:52 34.422675 -119.835908 265 17ft 0kts
25-Feb-18 17:53 34.422675 -119.835908 265 17ft 0kts
25-Feb-18 17:54 34.422675 -119.835908 265 17ft 0kts
25-Feb-18 17:55 34.422675 -119.835908 265 17ft 0kts
25-Feb-18 17:56 34.422673 -119.835957 262 17ft 7kts
25-Feb-18 17:57 34.422688 -119.836523 292 17ft 0kts
25-Feb-18 17:58 34.422700 -119.836558 289 17ft 0kts
25-Feb-18 17:59 34.422728 -119.836659 282 17ft 5kts
25-Feb-18 18:00 34.423724 -119.837466 345 17ft 25kts
25-Feb-18 18:01 34.426331 -119.838256 343 17ft 28kts
25-Feb-18 18:02 34.428340 -119.838881 342 17ft 15kts
25-Feb-18 18:03 34.430446 -119.839482 334 17ft 14kts
25-Feb-18 18:04 34.430675 -119.839838 251 17ft 0kts
25-Feb-18 18:05 34.430587 -119.840130 237 17ft 7kts
25-Feb-18 18:06 34.429125 -119.839873 169 17ft 52kts
25-Feb-18 18:07 34.422183 -119.836892 162 163ft 94kts
25-Feb-18 18:08 34.413803 -119.833009 163 415ft 103kts
25-Feb-18 18:09 34.403691 -119.828407 163 794ft 102kts
25-Feb-18 18:10 34.393603 -119.823353 160 1180ft 101kts
25-Feb-18 18:11 34.383676 -119.818099 160 1510ft 106kts
25-Feb-18 18:12 34.372685 -119.812486 161 1508ft 126kts
25-Feb-18 18:13 34.361159 -119.806734 161 1507ft 131kts
25-Feb-18 18:14 34.348191 -119.800299 161 1507ft 133kts
25-Feb-18 18:15 34.334697 -119.793608 161 1506ft 133kts
25-Feb-18 18:16 34.318925 -119.785752 161 1506ft 127kts
25-Feb-18 18:17 34.269138 -119.760821 161 1506ft 126kts
25-Feb-18 18:18 34.231194 -119.741728 161 1506ft 126kts
25-Feb-18 18:19 34.214000 -119.732983 161 1505ft 126kts
25-Feb-18 18:20 34.196799 -119.724183 161 1505ft 126kts
25-Feb-18 18:21 34.179282 -119.709345 115 1655ft 127kts
25-Feb-18 18:22 34.192054 -119.648617 63 3259ft 113kts
25-Feb-18 18:23 34.218862 -119.570423 60 5573ft 104kts
25-Feb-18 18:24 34.244987 -119.495286 58 7311ft 106kts
25-Feb-18 18:25 34.272985 -119.415606 60 7496ft 123kts
25-Feb-18 18:26 34.278264 -119.400286 61 7494ft 131kts
25-Feb-18 18:27 34.283624 -119.384627 61 7493ft 133kts
25-Feb-18 18:28 34.288977 -119.368966 61 7493ft 134kts
25-Feb-18 18:29 34.315166 -119.292232 61 7489ft 134kts
25-Feb-18 18:30 34.328982 -119.194773 92 7486ft 139kts
25-Feb-18 18:31 34.325991 -119.165780 95 7486ft 140kts
25-Feb-18 18:32 34.317722 -119.104853 97 7484ft 140kts
25-Feb-18 18:33 34.302540 -119.004713 98 7482ft 140kts
25-Feb-18 18:34 34.286773 -118.905300 99 7482ft 139kts
25-Feb-18 18:35 34.271372 -118.805969 99 7482ft 138kts
25-Feb-18 18:36 34.263531 -118.755318 99 7477ft 137kts
25-Feb-18 18:37 34.260246 -118.734142 100 7475ft 137kts
25-Feb-18 18:38 34.257350 -118.715476 100 7473ft 137kts
25-Feb-18 18:39 34.254972 -118.700165 100 7471ft 137kts
25-Feb-18 18:40 34.252756 -118.685901 100 7431ft 139kts
25-Feb-18 18:41 34.250496 -118.671382 100 7310ft 145kts
25-Feb-18 18:42 34.248203 -118.656722 101 7048ft 152kts
25-Feb-18 18:43 34.245839 -118.641652 101 6752ft 154kts
25-Feb-18 18:44 34.243502 -118.626720 101 6422ft 157kts
25-Feb-18 18:45 34.241109 -118.611408 101 6041ft 158kts
25-Feb-18 18:46 34.238435 -118.594358 102 5568ft 155kts
25-Feb-18 18:47 34.236350 -118.581266 102 5070ft 150kts
25-Feb-18 18:48 34.234013 -118.566498 102 4420ft 152kts
25-Feb-18 18:49 34.231855 -118.552797 102 3788ft 152kts
25-Feb-18 18:50 34.228981 -118.534496 102 2939ft 151kts
25-Feb-18 18:51 34.226555 -118.519015 103 2271ft 134kts
25-Feb-18 18:52 34.224827 -118.507743 103 2297ft 102kts
25-Feb-18 18:53 34.221899 -118.488797 103 2291ft 116kts
25-Feb-18 18:54 34.216479 -118.454232 104 2285ft 104kts
25-Feb-18 18:55 34.212942 -118.445093 132 2100ft 98kts
25-Feb-18 18:56 34.207159 -118.437079 134 1958ft 97kts
25-Feb-18 18:57 34.202493 -118.428923 124 1924ft 81kts
25-Feb-18 18:58 34.200027 -118.421081 103 1868ft 81kts
25-Feb-18 18:59 34.199279 -118.412239 96 1773ft 86kts
25-Feb-18 19:00 34.199085 -118.403462 97 1685ft 80kts
25-Feb-18 19:01 34.198875 -118.395982 96 1585ft 78kts
25-Feb-18 19:02 34.198682 -118.388033 98 1416ft 73kts
25-Feb-18 19:03 34.198317 -118.380658 99 1207ft 75kts
25-Feb-18 19:04 34.198102 -118.373378 100 950ft 66kts
25-Feb-18 19:05 34.197977 -118.367279 98 781ft 45kts
25-Feb-18 19:06 34.198343 -118.364631 9 781ft 0kts
25-Feb-18 19:07 34.198387 -118.364625 3 781ft 0kts
25-Feb-18 19:08 34.199003 -118.364071 81 781ft 17kts
25-Feb-18 19:09 34.198931 -118.362045 90 781ft 17kts
25-Feb-18 19:10 34.198911 -118.360184 92 781ft 17kts
25-Feb-18 19:11 34.199042 -118.358147 26 781ft 13kts
25-Feb-18 19:12 34.199817 -118.358624 340 781ft 8kts
25-Feb-18 19:13 34.200181 -118.358734 264 781ft 0kts

Navigation Log

Ident Type
1. KSBA Airport
2. KBUR Airport